createdAt,value
2022-10-13T00:01:49.382Z,3.22
2022-10-13T00:04:16.471Z,4.07
2022-10-13T00:06:43.478Z,3.40
2022-10-13T00:09:10.547Z,3.72
2022-10-13T00:11:37.703Z,4.80
2022-10-13T00:14:05.632Z,4.13
2022-10-13T00:16:35.873Z,3.72
2022-10-13T00:19:03.302Z,4.53
2022-10-13T00:21:30.402Z,3.53
2022-10-13T00:23:57.852Z,3.42
2022-10-13T00:26:26.148Z,3.42
2022-10-13T00:28:55.016Z,4.32
2022-10-13T00:31:28.295Z,4.00
2022-10-13T00:33:55.960Z,3.80
2022-10-13T00:36:24.192Z,4.00
2022-10-13T00:38:53.586Z,3.80
2022-10-13T00:41:21.826Z,3.42
2022-10-13T00:43:51.025Z,2.95
2022-10-13T00:46:20.300Z,3.55
2022-10-13T00:48:53.860Z,3.90
2022-10-13T00:51:26.395Z,3.50
2022-10-13T00:53:57.760Z,3.65
2022-10-13T00:56:27.663Z,3.45
2022-10-13T00:58:56.300Z,4.75
2022-10-13T01:01:23.454Z,3.30
2022-10-13T01:03:50.470Z,3.28
2022-10-13T01:06:23.490Z,3.63
2022-10-13T01:08:51.312Z,3.10
2022-10-13T01:11:47.574Z,4.00
2022-10-13T01:14:43.367Z,3.45
2022-10-13T01:17:18.326Z,3.25
2022-10-13T01:20:38.371Z,3.40
2022-10-13T01:23:35.151Z,3.35
2022-10-13T01:26:02.195Z,3.45
2022-10-13T01:28:47.372Z,3.05
2022-10-13T01:31:20.284Z,3.00
2022-10-13T01:34:04.604Z,3.58
2022-10-13T01:36:59.322Z,3.08
2022-10-13T01:39:57.713Z,3.05
2022-10-13T01:42:33.764Z,3.30
2022-10-13T01:45:04.484Z,3.05
2022-10-13T01:47:34.420Z,2.47
2022-10-13T01:50:02.933Z,3.05
2022-10-13T01:52:37.279Z,3.25
2022-10-13T01:55:12.510Z,3.80
2022-10-13T01:57:44.988Z,3.13
2022-10-13T02:00:18.152Z,3.08
2022-10-13T02:03:00.770Z,3.20
2022-10-13T02:05:42.772Z,2.97
2022-10-13T02:08:19.124Z,2.92
2022-10-13T02:10:56.776Z,2.75
2022-10-13T02:13:27.845Z,3.10
2022-10-13T02:16:00.615Z,2.95
2022-10-13T02:18:32.480Z,2.80
2022-10-13T02:21:00.532Z,4.10
2022-10-13T02:23:28.537Z,3.17
2022-10-13T02:25:57.496Z,3.30
2022-10-13T02:28:29.570Z,2.90
2022-10-13T02:30:56.883Z,2.85
2022-10-13T02:33:23.928Z,3.25
2022-10-13T02:35:50.902Z,3.05
2022-10-13T02:38:20.512Z,3.15
2022-10-13T02:40:47.963Z,3.10
2022-10-13T02:43:15.102Z,3.10
2022-10-13T02:45:42.588Z,3.60
2022-10-13T02:48:10.664Z,3.28
2022-10-13T02:50:38.914Z,3.70
2022-10-13T02:53:06.998Z,3.67
2022-10-13T02:55:42.627Z,3.42
2022-10-13T02:58:12.770Z,3.45
2022-10-13T03:00:43.017Z,3.65
2022-10-13T03:03:12.007Z,3.50
2022-10-13T03:05:39.095Z,3.85
2022-10-13T03:08:06.476Z,3.70
2022-10-13T03:10:33.511Z,3.72
2022-10-13T03:13:01.046Z,3.65
2022-10-13T03:15:28.214Z,3.60
2022-10-13T03:17:59.666Z,3.38
2022-10-13T03:20:26.774Z,3.38
2022-10-13T03:22:53.794Z,3.40
2022-10-13T03:25:21.082Z,3.72
2022-10-13T03:27:50.708Z,3.80
2022-10-13T03:30:19.334Z,3.85
2022-10-13T03:32:46.629Z,4.25
2022-10-13T03:35:14.070Z,4.30
2022-10-13T03:37:41.422Z,4.30
2022-10-13T03:40:09.096Z,4.07
2022-10-13T03:42:38.310Z,4.20
2022-10-13T03:45:08.485Z,3.90
2022-10-13T03:47:36.949Z,4.15
2022-10-13T03:50:08.062Z,3.83
2022-10-13T03:52:35.168Z,4.63
2022-10-13T03:55:02.199Z,4.38
2022-10-13T03:57:30.864Z,4.95
2022-10-13T03:59:58.251Z,4.78
2022-10-13T04:02:27.916Z,4.93
2022-10-13T04:04:56.018Z,4.90
2022-10-13T04:07:23.522Z,4.95
2022-10-13T04:09:56.266Z,4.97
2022-10-13T04:12:23.856Z,5.22
2022-10-13T04:14:51.075Z,4.88
2022-10-13T04:17:20.475Z,4.97
2022-10-13T04:19:47.624Z,5.13
2022-10-13T04:22:17.845Z,4.80
2022-10-13T04:24:48.367Z,4.50
2022-10-13T04:27:17.073Z,4.68
2022-10-13T04:29:44.097Z,4.50
2022-10-13T04:32:11.283Z,4.35
2022-10-13T04:34:38.387Z,4.60
2022-10-13T04:37:08.104Z,4.90
2022-10-13T04:39:35.443Z,4.82
2022-10-13T04:42:02.480Z,5.82
2022-10-13T04:44:31.184Z,4.53
2022-10-13T04:46:58.565Z,5.05
2022-10-13T04:49:27.840Z,5.40
2022-10-13T04:51:54.902Z,5.30
2022-10-13T04:54:22.171Z,4.97
2022-10-13T04:56:49.291Z,5.30
2022-10-13T04:59:16.364Z,4.90
2022-10-13T05:01:43.682Z,4.43
2022-10-13T05:04:13.845Z,4.90
2022-10-13T05:07:12.575Z,5.63
2022-10-13T05:09:32.380Z,5.05
2022-10-13T05:11:59.705Z,4.78
2022-10-13T05:14:26.891Z,5.28
2022-10-13T05:16:54.009Z,4.78
2022-10-13T05:19:21.162Z,5.25
2022-10-13T05:21:49.796Z,5.85
2022-10-13T05:24:21.680Z,5.07
2022-10-13T05:29:21.580Z,5.07
2022-10-13T05:31:48.652Z,5.82
2022-10-13T05:34:15.709Z,5.05
2022-10-13T05:36:42.819Z,4.95
2022-10-13T05:39:10.993Z,5.13
2022-10-13T05:41:39.410Z,5.15
2022-10-13T05:44:14.018Z,5.20
2022-10-13T05:46:54.434Z,5.07
2022-10-13T05:49:21.630Z,5.30
2022-10-13T05:51:55.617Z,4.55
2022-10-13T05:54:40.709Z,5.18
2022-10-13T05:57:20.530Z,5.65
2022-10-13T05:59:58.313Z,6.50
2022-10-13T06:02:28.536Z,5.70
2022-10-13T06:04:57.804Z,5.65
2022-10-13T06:07:28.787Z,5.25
2022-10-13T06:09:57.553Z,5.47
2022-10-13T06:12:24.906Z,5.43
2022-10-13T06:14:51.989Z,6.03
2022-10-13T06:17:19.414Z,5.38
2022-10-13T06:19:47.656Z,5.57
2022-10-13T06:22:14.828Z,5.93
2022-10-13T06:24:42.124Z,5.38
2022-10-13T06:27:11.112Z,5.57
2022-10-13T06:29:38.373Z,5.80
2022-10-13T06:32:06.059Z,5.78
2022-10-13T06:34:33.590Z,6.13
2022-10-13T06:37:00.877Z,6.63
2022-10-13T06:39:27.959Z,5.45
2022-10-13T06:41:55.501Z,6.05
2022-10-13T06:44:33.410Z,6.03
2022-10-13T06:47:05.382Z,6.13
2022-10-13T06:49:35.200Z,5.68
2022-10-13T06:52:02.356Z,5.63
2022-10-13T06:54:29.450Z,6.13
2022-10-13T06:56:56.736Z,6.25
2022-10-13T06:59:23.827Z,6.22
2022-10-13T07:01:51.922Z,7.05
2022-10-13T07:04:23.108Z,6.13
2022-10-13T07:06:51.104Z,6.35
2022-10-13T07:09:18.430Z,5.95
2022-10-13T07:11:46.109Z,6.28
2022-10-13T07:14:14.210Z,7.20
2022-10-13T07:16:41.305Z,6.38
2022-10-13T07:19:08.385Z,6.43
2022-10-13T07:21:37.751Z,6.15
2022-10-13T07:24:05.065Z,6.95
2022-10-13T07:26:34.059Z,6.90
2022-10-13T07:29:02.318Z,6.75
2022-10-13T07:31:29.707Z,6.40
2022-10-13T07:33:59.498Z,6.75
2022-10-13T07:36:28.987Z,5.82
2022-10-13T07:38:56.025Z,6.38
2022-10-13T07:41:23.123Z,5.55
2022-10-13T07:43:57.702Z,6.05
2022-10-13T07:46:25.673Z,5.63
2022-10-13T07:48:54.032Z,6.10
2022-10-13T07:51:22.337Z,6.25
2022-10-13T07:53:50.942Z,5.90
2022-10-13T07:56:18.076Z,6.00
2022-10-13T07:58:47.242Z,6.22
2022-10-13T08:01:15.959Z,5.97
2022-10-13T08:03:48.895Z,5.90
2022-10-13T08:06:19.174Z,5.95
2022-10-13T08:08:46.302Z,6.00
2022-10-13T08:11:17.950Z,6.10
2022-10-13T08:13:52.215Z,5.03
2022-10-13T08:16:22.909Z,5.22
2022-10-13T08:18:50.574Z,5.30
2022-10-13T08:24:09.698Z,5.50
2022-10-13T08:26:36.896Z,4.63
2022-10-13T08:31:57.091Z,5.13
2022-10-13T08:34:24.835Z,4.72
2022-10-13T08:36:54.841Z,5.13
2022-10-13T08:39:25.513Z,4.78
2022-10-13T08:41:54.478Z,5.95
2022-10-13T08:47:27.014Z,5.00
2022-10-13T08:50:00.235Z,4.78
2022-10-13T08:52:45.841Z,5.22
2022-10-13T08:55:23.400Z,5.03
2022-10-13T08:57:50.824Z,5.40
2022-10-13T09:00:18.746Z,6.22
2022-10-13T09:02:50.545Z,5.85
2022-10-13T09:05:56.908Z,7.10
2022-10-13T09:08:27.829Z,6.22
2022-10-13T09:10:55.084Z,5.70
2022-10-13T09:13:22.797Z,5.35
2022-10-13T09:15:50.671Z,5.47
2022-10-13T09:18:20.025Z,5.20
2022-10-13T09:20:47.460Z,5.35
2022-10-13T09:23:14.533Z,5.38
2022-10-13T09:25:48.567Z,5.05
2022-10-13T09:28:29.021Z,5.78
2022-10-13T09:31:15.035Z,5.93
2022-10-13T09:33:42.293Z,5.60
2022-10-13T09:36:16.419Z,5.53
2022-10-13T09:39:13.367Z,5.82
2022-10-13T09:44:18.434Z,4.70
2022-10-13T09:47:00.967Z,4.90
2022-10-13T09:49:38.965Z,4.25
2022-10-13T09:52:12.189Z,3.92
2022-10-13T09:54:53.546Z,4.45
2022-10-13T09:57:45.197Z,4.28
2022-10-13T10:00:27.039Z,4.63
2022-10-13T10:03:01.107Z,4.72
2022-10-13T10:05:48.718Z,4.35
2022-10-13T10:08:58.135Z,4.45
2022-10-13T10:11:36.357Z,3.85
2022-10-13T10:14:28.706Z,4.30
2022-10-13T10:17:14.153Z,4.53
2022-10-13T10:20:03.724Z,4.70
2022-10-13T10:22:59.864Z,4.00
2022-10-13T10:25:30.047Z,4.05
2022-10-13T10:28:06.208Z,3.90
2022-10-13T10:30:39.360Z,4.13
2022-10-13T10:33:12.301Z,4.40
2022-10-13T10:38:18.817Z,4.80
2022-10-13T10:41:25.755Z,4.70
2022-10-13T10:44:09.023Z,4.75
2022-10-13T10:49:15.631Z,4.82
2022-10-13T10:51:42.927Z,5.30
2022-10-13T10:54:09.960Z,4.75
2022-10-13T10:56:47.796Z,4.40
2022-10-13T10:59:18.134Z,4.22
2022-10-13T11:02:34.576Z,4.45
2022-10-13T11:05:05.402Z,4.03
2022-10-13T11:07:33.577Z,4.13
2022-10-13T11:10:16.766Z,4.28
2022-10-13T11:15:33.210Z,4.07
2022-10-13T11:18:00.394Z,4.15
2022-10-13T11:20:36.411Z,4.25
2022-10-13T11:23:03.346Z,3.90
2022-10-13T11:25:43.602Z,4.03
2022-10-13T11:28:23.065Z,4.43
2022-10-13T11:30:55.497Z,4.10
2022-10-13T11:33:51.512Z,4.28
2022-10-13T11:36:49.954Z,3.70
2022-10-13T11:42:12.330Z,4.47
2022-10-13T11:44:57.684Z,4.10
2022-10-13T11:47:49.418Z,3.78
2022-10-13T11:50:34.676Z,4.05
2022-10-13T11:53:13.677Z,3.55
2022-10-13T11:55:43.721Z,3.75
2022-10-13T11:58:17.896Z,3.28
2022-10-13T12:01:03.508Z,3.65
2022-10-13T12:03:36.426Z,3.83
2022-10-13T12:06:37.200Z,3.75
2022-10-13T12:09:26.849Z,3.70
2022-10-13T12:12:07.609Z,3.80
2022-10-13T12:14:46.011Z,4.28
2022-10-13T12:17:32.701Z,4.25
2022-10-13T12:20:02.155Z,3.60
2022-10-13T12:22:31.657Z,3.45
2022-10-13T12:25:04.821Z,3.42
2022-10-13T12:27:42.432Z,3.42
2022-10-13T12:30:23.678Z,3.20
2022-10-13T12:32:53.181Z,3.67
2022-10-13T12:35:32.548Z,2.95
2022-10-13T12:38:03.363Z,3.22
2022-10-13T12:40:32.197Z,3.00
2022-10-13T12:42:59.951Z,3.65
2022-10-13T12:45:31.688Z,3.00
2022-10-13T12:47:59.007Z,3.35
2022-10-13T12:50:33.354Z,2.58
2022-10-13T12:53:09.205Z,3.00
2022-10-13T12:55:46.495Z,2.72
2022-10-13T12:58:20.889Z,2.78
2022-10-13T13:01:27.261Z,2.67
2022-10-13T13:04:24.874Z,2.83
2022-10-13T13:07:16.147Z,2.97
2022-10-13T13:09:43.615Z,2.72
2022-10-13T13:12:10.686Z,3.13
2022-10-13T13:14:39.466Z,2.50
2022-10-13T13:17:13.525Z,2.25
2022-10-13T13:19:46.041Z,2.65
2022-10-13T13:22:16.705Z,2.47
2022-10-13T13:24:44.534Z,2.28
2022-10-13T13:27:17.819Z,2.33
2022-10-13T13:29:45.268Z,2.47
2022-10-13T13:32:14.635Z,2.85
2022-10-13T13:34:41.921Z,2.25
2022-10-13T13:37:24.289Z,2.33
2022-10-13T13:39:55.171Z,2.13
2022-10-13T13:42:22.326Z,1.80
2022-10-13T13:44:49.584Z,1.67
2022-10-13T13:47:28.187Z,2.30
2022-10-13T13:49:56.568Z,2.30
2022-10-13T13:52:25.972Z,2.30
2022-10-13T13:54:53.284Z,2.05
2022-10-13T13:57:20.749Z,2.00
2022-10-13T13:59:48.133Z,2.28
2022-10-13T14:02:18.117Z,2.20
2022-10-13T14:04:45.316Z,1.92
2022-10-13T14:07:13.255Z,1.90
2022-10-13T14:09:40.447Z,2.22
2022-10-13T14:12:10.171Z,2.05
2022-10-13T14:14:37.794Z,2.10
2022-10-13T14:17:05.582Z,1.80
2022-10-13T14:19:33.222Z,1.75
2022-10-13T14:22:05.815Z,1.70
2022-10-13T14:24:35.642Z,2.03
2022-10-13T14:27:04.993Z,2.40
2022-10-13T14:29:32.149Z,2.17
2022-10-13T14:31:59.551Z,2.33
2022-10-13T14:34:26.979Z,3.35
2022-10-13T14:36:54.149Z,3.28
2022-10-13T14:39:21.347Z,3.40
2022-10-13T14:41:48.427Z,3.80
2022-10-13T14:44:17.125Z,3.70
2022-10-13T14:46:46.156Z,3.58
2022-10-13T14:49:13.186Z,3.75
2022-10-13T14:51:43.699Z,3.83
2022-10-13T14:54:10.971Z,3.55
2022-10-13T14:56:38.087Z,3.08
2022-10-13T14:59:08.037Z,3.35
2022-10-13T15:01:40.322Z,3.95
2022-10-13T15:04:13.823Z,4.18
2022-10-13T15:09:16.166Z,3.80
2022-10-13T15:11:43.531Z,3.55
2022-10-13T15:14:10.687Z,3.15
2022-10-13T15:16:38.084Z,3.03
2022-10-13T15:19:05.668Z,2.97
2022-10-13T15:21:32.973Z,3.03
2022-10-13T15:24:01.562Z,3.00
2022-10-13T15:26:28.963Z,2.60
2022-10-13T15:28:56.081Z,3.28
2022-10-13T15:31:24.024Z,2.63
2022-10-13T15:33:53.020Z,2.92
2022-10-13T15:36:23.420Z,2.40
2022-10-13T15:38:51.793Z,2.72
2022-10-13T15:41:23.864Z,3.00
2022-10-13T15:43:54.210Z,3.03
2022-10-13T15:46:21.790Z,2.55
2022-10-13T15:48:50.708Z,3.58
2022-10-13T15:51:23.013Z,3.00
2022-10-13T15:53:50.526Z,2.83
2022-10-13T15:56:18.044Z,7.53
2022-10-13T15:58:45.999Z,7.72
2022-10-13T16:01:14.654Z,3.25
2022-10-13T16:03:46.539Z,3.67
2022-10-13T16:06:14.545Z,4.13
2022-10-13T16:08:45.423Z,3.33
2022-10-13T16:11:16.175Z,3.58
2022-10-13T16:13:48.103Z,3.75
2022-10-13T16:16:15.555Z,3.08
2022-10-13T16:18:46.282Z,3.67
2022-10-13T16:21:18.773Z,3.97
2022-10-13T16:23:48.053Z,3.95
2022-10-13T16:26:17.684Z,4.00
2022-10-13T16:28:46.203Z,3.10
2022-10-13T16:31:15.534Z,3.75
2022-10-13T16:33:44.186Z,3.72
2022-10-13T16:36:15.793Z,3.75
2022-10-13T16:38:47.300Z,4.10
2022-10-13T16:41:18.722Z,3.53
2022-10-13T16:43:46.882Z,3.70
2022-10-13T16:46:17.267Z,3.92
2022-10-13T16:48:45.562Z,3.83
2022-10-13T16:51:16.521Z,3.85
2022-10-13T16:53:48.256Z,3.65
2022-10-13T16:56:16.111Z,3.97
2022-10-13T16:58:45.447Z,4.25
2022-10-13T17:01:12.869Z,4.90
2022-10-13T17:03:44.129Z,3.50
2022-10-13T17:06:14.058Z,3.33
2022-10-13T17:08:42.423Z,3.30
2022-10-13T17:11:28.175Z,3.65
2022-10-13T17:13:56.977Z,3.95
2022-10-13T17:16:32.578Z,3.88
2022-10-13T17:19:07.393Z,3.70
2022-10-13T17:21:38.449Z,3.13
2022-10-13T17:24:11.615Z,3.80
2022-10-13T17:26:38.816Z,3.67
2022-10-13T17:29:05.958Z,4.35
2022-10-13T17:31:33.028Z,4.22
2022-10-13T17:34:00.192Z,3.65
2022-10-13T17:36:29.563Z,4.10
2022-10-13T17:39:01.863Z,4.20
2022-10-13T17:41:28.959Z,4.13
2022-10-13T17:43:58.830Z,3.30
2022-10-13T17:46:36.687Z,4.13
2022-10-13T17:49:04.753Z,4.05
2022-10-13T17:51:31.849Z,4.53
2022-10-13T17:54:02.062Z,4.65
2022-10-13T17:56:31.890Z,4.90
2022-10-13T17:59:02.590Z,4.50
2022-10-13T18:01:34.379Z,4.38
2022-10-13T18:04:07.523Z,4.65
2022-10-13T18:06:40.100Z,4.25
2022-10-13T18:09:10.451Z,4.95
2022-10-13T18:11:50.286Z,5.30
2022-10-13T18:14:21.140Z,4.82
2022-10-13T18:16:57.664Z,5.15
2022-10-13T18:19:26.963Z,8.02
2022-10-13T18:21:57.176Z,4.20
2022-10-13T18:24:25.235Z,4.35
2022-10-13T18:26:53.711Z,4.60
2022-10-13T18:29:20.740Z,4.70
2022-10-13T18:31:47.800Z,4.55
2022-10-13T18:34:17.280Z,5.07
2022-10-13T18:36:47.875Z,4.28
2022-10-13T18:39:16.553Z,4.72
2022-10-13T18:41:46.820Z,4.03
2022-10-13T18:44:14.725Z,4.75
2022-10-13T18:46:42.839Z,5.60
2022-10-13T18:49:14.922Z,5.32
2022-10-13T18:51:49.493Z,4.50
2022-10-13T18:56:43.816Z,4.72
2022-10-13T18:59:11.012Z,4.80
2022-10-13T19:01:38.834Z,4.53
2022-10-13T19:04:06.547Z,4.88
2022-10-13T19:06:33.999Z,4.22
2022-10-13T19:09:06.262Z,4.30
2022-10-13T19:11:37.245Z,4.82
2022-10-13T19:14:07.096Z,5.07
2022-10-13T19:16:37.836Z,4.80
2022-10-13T19:19:06.787Z,5.03
2022-10-13T19:21:33.924Z,7.45
2022-10-13T19:24:01.577Z,4.45
2022-10-13T19:26:31.630Z,4.60
2022-10-13T19:29:02.551Z,4.80
2022-10-13T19:31:33.819Z,4.72
2022-10-13T19:34:08.687Z,4.55
2022-10-13T19:36:45.220Z,4.57
2022-10-13T19:39:20.249Z,4.95
2022-10-13T19:41:49.016Z,4.82
2022-10-13T19:44:18.328Z,4.40
2022-10-13T19:46:49.127Z,4.30
2022-10-13T19:49:19.994Z,4.47
2022-10-13T19:51:49.203Z,4.10
2022-10-13T19:54:18.286Z,4.35
2022-10-13T19:56:47.765Z,4.28
2022-10-13T19:59:15.703Z,4.57
2022-10-13T20:01:42.746Z,4.22
2022-10-13T20:04:18.676Z,4.65
2022-10-13T20:06:46.406Z,5.18
2022-10-13T20:09:13.947Z,4.97
2022-10-13T20:11:43.965Z,4.95
2022-10-13T20:14:14.510Z,4.57
2022-10-13T20:16:42.552Z,4.32
2022-10-13T20:19:12.836Z,4.40
2022-10-13T20:21:40.726Z,4.55
2022-10-13T20:24:13.168Z,4.40
2022-10-13T20:26:41.173Z,4.25
2022-10-13T20:29:08.574Z,4.43
2022-10-13T20:31:35.796Z,4.05
2022-10-13T20:34:03.192Z,5.00
2022-10-13T20:36:38.313Z,4.60
2022-10-13T20:39:06.656Z,4.68
2022-10-13T20:41:34.272Z,4.82
2022-10-13T20:44:01.913Z,4.60
2022-10-13T20:46:31.529Z,4.82
2022-10-13T20:49:10.354Z,4.60
2022-10-13T20:51:38.985Z,4.85
2022-10-13T20:54:11.943Z,4.97
2022-10-13T20:56:39.717Z,5.10
2022-10-13T20:59:10.089Z,5.15
2022-10-13T21:01:38.255Z,5.18
2022-10-13T21:04:06.019Z,4.55
2022-10-13T21:06:33.875Z,4.95
2022-10-13T21:09:01.549Z,5.75
2022-10-13T21:11:28.655Z,4.97
2022-10-13T21:13:55.750Z,4.88
2022-10-13T21:16:27.359Z,5.55
2022-10-13T21:18:55.609Z,5.28
2022-10-13T21:21:24.974Z,5.22
2022-10-13T21:24:04.350Z,5.38
2022-10-13T21:26:32.521Z,5.30
2022-10-13T21:29:01.234Z,5.40
2022-10-13T21:31:30.064Z,5.15
2022-10-13T21:33:57.916Z,5.18
2022-10-13T21:36:30.888Z,5.38
2022-10-13T21:39:00.296Z,5.28
2022-10-13T21:41:28.700Z,5.07
2022-10-13T21:43:56.414Z,5.53
2022-10-13T21:46:29.198Z,5.05
2022-10-13T21:48:59.013Z,5.50
2022-10-13T21:51:31.427Z,5.53
2022-10-13T21:54:12.304Z,5.95
2022-10-13T21:56:40.940Z,5.35
2022-10-13T21:59:10.122Z,5.80
2022-10-13T22:01:37.239Z,5.20
2022-10-13T22:04:11.999Z,5.35
2022-10-13T22:06:39.395Z,4.97
2022-10-13T22:09:07.428Z,4.97
2022-10-13T22:11:36.647Z,6.10
2022-10-13T22:14:11.052Z,5.30
2022-10-13T22:16:43.782Z,4.97
2022-10-13T22:19:11.242Z,5.30
2022-10-13T22:21:44.369Z,5.57
2022-10-13T22:24:16.895Z,5.72
2022-10-13T22:26:46.289Z,6.22
2022-10-13T22:29:16.269Z,5.70
2022-10-13T22:31:43.992Z,5.80
2022-10-13T22:34:13.040Z,6.38
2022-10-13T22:36:44.523Z,5.70
2022-10-13T22:39:12.639Z,5.80
2022-10-13T22:41:39.952Z,5.55
2022-10-13T22:44:07.062Z,5.32
2022-10-13T22:46:37.063Z,5.70
2022-10-13T22:49:05.652Z,5.68
2022-10-13T22:51:34.589Z,6.03
2022-10-13T22:54:01.853Z,5.15
2022-10-13T22:56:31.121Z,5.45
2022-10-13T22:59:07.501Z,6.05
2022-10-13T23:01:34.829Z,5.85
2022-10-13T23:04:02.300Z,5.38
2022-10-13T23:06:31.355Z,5.22
2022-10-13T23:09:04.186Z,5.50
2022-10-13T23:11:31.228Z,5.20
2022-10-13T23:14:01.563Z,6.13
2022-10-13T23:16:28.779Z,5.80
2022-10-13T23:18:55.937Z,6.25
2022-10-13T23:21:26.293Z,5.50
2022-10-13T23:24:01.966Z,5.65
2022-10-13T23:26:29.761Z,4.97
2022-10-13T23:28:57.955Z,5.85
2022-10-13T23:31:26.645Z,5.10
2022-10-13T23:33:54.195Z,5.03
2022-10-13T23:36:29.962Z,5.30
2022-10-13T23:39:01.315Z,5.25
2022-10-13T23:41:29.114Z,5.35
2022-10-13T23:43:56.263Z,5.50
2022-10-13T23:46:23.357Z,5.43
2022-10-13T23:48:50.529Z,5.43
2022-10-13T23:51:20.072Z,5.18
2022-10-13T23:53:47.333Z,5.45
2022-10-13T23:56:16.018Z,5.10
2022-10-13T23:58:43.899Z,5.30
